Flight Track Log - Related Links

Times and Time Zones

All times are in EDT time to prevent confusion due to time zone crossing. See the RLI811 flight status page for this flight to view local times or setup timezone preferences in your user account.

Time Position Orientation Groundspeed Altitude Reporting Facility
EDT Latitude Longitude Course Direction KTS MPH feet Rate Location/Type
Tue 06:58:33 PM 41.1911 -72.1172 80° East 180 207 9,400  Level Boston Center
Tue 06:59:58 PM 41.2033 -72.0236 80° East 184 212 9,200 -205 Descending Boston Center
Tue 07:00:59 PM 41.2114 -71.9489 82° East 194 223 8,900 -397 Descending Boston Center
Tue 07:01:59 PM 41.2214 -71.8800 79° East 197 227 8,400 -446 Descending Boston Center
Tue 07:03:00 PM 41.2317 -71.8081 79° East 200 230 8,000 -496 Descending Boston Center
Tue 07:04:00 PM 41.2417 -71.7361 80° East 200 230 7,400 -545 Descending Boston Center
Tue 07:05:01 PM 41.2494 -71.6644 82° East 197 227 6,900 -541 Descending Boston Center
Tue 07:06:13 PM 41.2592 -71.5731 82° East 197 227 6,200 -583 Descending Boston Center
Tue 07:08:00 PM 41.2413 -71.5207 114° Southeast  Level FlightAware Approximate
Tue 07:15:00 PM 41.2789 -71.3007 77° East  Level Estimated
Tue 07:16:00 PM 41.2795 -71.2684 89° East  Level FlightAware Approximate
Tue 07:17:00 PM 41.2800 -71.2362 89° East  Level FlightAware Approximate
Tue 07:18:00 PM 41.2805 -71.2039 89° East  Level FlightAware Approximate
Tue 07:19:00 PM 41.2810 -71.1717 89° East  Level FlightAware Approximate
Tue 07:20:00 PM 41.2815 -71.1395 89° East  Level FlightAware Approximate
Tue 07:21:00 PM 41.2820 -71.1072 89° East  Level FlightAware Approximate
Tue 07:22:00 PM 41.2825 -71.0750 89° East  Level FlightAware Approximate
Tue 07:23:00 PM 41.2830 -71.0427 89° East  Level FlightAware Approximate
Tue 07:24:00 PM 41.3007 -71.0132 75° East  Level FlightAware Approximate
Tue 07:25:00 PM 41.3070 -70.9820 75° East  Level FlightAware Approximate
Tue 07:26:00 PM 41.3132 -70.9508 75° East  Level FlightAware Approximate
Tue 07:27:00 PM 41.3195 -70.9196 75° East  Level FlightAware Approximate
Tue 07:28:00 PM 41.3257 -70.8884 75° East  Level FlightAware Approximate
Tue 07:29:00 PM 41.3319 -70.8572 75° East  Level FlightAware Approximate
Tue 07:30:00 PM 41.3386 -70.8262 73° East  Level FlightAware Approximate

Login

Don't have an account? Register now (free) for customized features, flight alerts, and more!